sensor_id;sensor_type;location;lat;lon;timestamp;pressure;altitude;pressure_sealevel;temperature;humidity
23164;BME280;31429;42.674;23.350;2023-11-19T00:00:24;94731.53;;;3.95;100.00
23164;BME280;31429;42.674;23.350;2023-11-19T00:01:24;94748.97;;;4.15;100.00
23164;BME280;31429;42.674;23.350;2023-11-19T00:02:25;94754.19;;;4.03;100.00
23164;BME280;31429;42.674;23.350;2023-11-19T00:03:26;94749.75;;;4.19;100.00
23164;BME280;31429;42.674;23.350;2023-11-19T00:04:26;94744.94;;;4.02;100.00
23164;BME280;31429;42.674;23.350;2023-11-19T00:05:27;94759.38;;;3.94;100.00
23164;BME280;31429;42.674;23.350;2023-11-19T00:06:29;94748.13;;;4.16;100.00
23164;BME280;31429;42.674;23.350;2023-11-19T00:07:30;94746.25;;;4.29;100.00
23164;BME280;31429;42.674;23.350;2023-11-19T00:08:30;94753.13;;;4.19;100.00
23164;BME280;31429;42.674;23.350;2023-11-19T00:09:31;94751.44;;;4.20;100.00
23164;BME280;31429;42.674;23.350;2023-11-19T00:10:32;94736.19;;;4.24;100.00
23164;BME280;31429;42.674;23.350;2023-11-19T00:11:32;94740.38;;;4.28;100.00
23164;BME280;31429;42.674;23.350;2023-11-19T00:12:33;94741.97;;;4.34;100.00
23164;BME280;31429;42.674;23.350;2023-11-19T00:13:34;94751.44;;;4.18;100.00
23164;BME280;31429;42.674;23.350;2023-11-19T00:14:36;94741.09;;;4.36;100.00
23164;BME280;31429;42.674;23.350;2023-11-19T00:15:36;94736.56;;;4.56;100.00
23164;BME280;31429;42.674;23.350;2023-11-19T00:16:37;94739.34;;;4.40;100.00
23164;BME280;31429;42.674;23.350;2023-11-19T00:17:38;94731.75;;;4.40;100.00
23164;BME280;31429;42.674;23.350;2023-11-19T00:18:41;94748.00;;;4.25;100.00
23164;BME280;31429;42.674;23.350;2023-11-19T00:19:41;94741.03;;;4.39;100.00
23164;BME280;31429;42.674;23.350;2023-11-19T00:20:42;94751.72;;;4.58;100.00
23164;BME280;31429;42.674;23.350;2023-11-19T00:21:45;94743.53;;;4.42;100.00
23164;BME280;31429;42.674;23.350;2023-11-19T00:22:46;94750.44;;;4.30;100.00
23164;BME280;31429;42.674;23.350;2023-11-19T00:23:48;94752.25;;;4.22;100.00
23164;BME280;31429;42.674;23.350;2023-11-19T00:24:49;94735.03;;;4.46;100.00
23164;BME280;31429;42.674;23.350;2023-11-19T00:25:50;94758.97;;;4.24;100.00
23164;BME280;31429;42.674;23.350;2023-11-19T00:26:50;94754.94;;;4.11;100.00
23164;BME280;31429;42.674;23.350;2023-11-19T00:27:51;94754.19;;;4.03;100.00
23164;BME280;31429;42.674;23.350;2023-11-19T00:28:53;94744.88;;;4.06;100.00
23164;BME280;31429;42.674;23.350;2023-11-19T00:29:57;94750.19;;;4.48;100.00
23164;BME280;31429;42.674;23.350;2023-11-19T00:30:58;94753.94;;;4.23;100.00
23164;BME280;31429;42.674;23.350;2023-11-19T00:31:59;94746.16;;;4.36;100.00
23164;BME280;31429;42.674;23.350;2023-11-19T00:33:00;94751.97;;;4.41;100.00
23164;BME280;31429;42.674;23.350;2023-11-19T00:34:00;94762.19;;;4.35;100.00
23164;BME280;31429;42.674;23.350;2023-11-19T00:35:02;94756.78;;;4.58;100.00
23164;BME280;31429;42.674;23.350;2023-11-19T00:36:03;94755.31;;;4.43;100.00
23164;BME280;31429;42.674;23.350;2023-11-19T00:37:04;94760.06;;;4.64;100.00
23164;BME280;31429;42.674;23.350;2023-11-19T00:38:05;94747.91;;;4.86;100.00
23164;BME280;31429;42.674;23.350;2023-11-19T00:39:05;94758.34;;;4.68;100.00
23164;BME280;31429;42.674;23.350;2023-11-19T00:40:07;94767.75;;;4.58;100.00
23164;BME280;31429;42.674;23.350;2023-11-19T00:41:08;94763.56;;;4.56;100.00
23164;BME280;31429;42.674;23.350;2023-11-19T00:42:09;94763.69;;;4.47;100.00
23164;BME280;31429;42.674;23.350;2023-11-19T00:43:10;94757.91;;;4.39;100.00
23164;BME280;31429;42.674;23.350;2023-11-19T00:44:11;94757.88;;;4.42;100.00
23164;BME280;31429;42.674;23.350;2023-11-19T00:45:13;94761.53;;;4.21;100.00
23164;BME280;31429;42.674;23.350;2023-11-19T00:46:14;94766.63;;;4.18;100.00
23164;BME280;31429;42.674;23.350;2023-11-19T00:47:15;94760.66;;;4.25;100.00
23164;BME280;31429;42.674;23.350;2023-11-19T00:48:16;94765.72;;;4.24;100.00
23164;BME280;31429;42.674;23.350;2023-11-19T00:49:17;94761.53;;;4.23;100.00
23164;BME280;31429;42.674;23.350;2023-11-19T00:50:18;94758.44;;;4.02;100.00
23164;BME280;31429;42.674;23.350;2023-11-19T00:51:19;94763.41;;;4.07;100.00
23164;BME280;31429;42.674;23.350;2023-11-19T00:52:19;94769.38;;;4.01;100.00
23164;BME280;31429;42.674;23.350;2023-11-19T00:53:20;94775.31;;;3.99;100.00
23164;BME280;31429;42.674;23.350;2023-11-19T00:54:21;94765.88;;;4.12;100.00
23164;BME280;31429;42.674;23.350;2023-11-19T00:55:26;94752.97;;;4.30;100.00
23164;BME280;31429;42.674;23.350;2023-11-19T00:56:26;94759.66;;;4.35;100.00
23164;BME280;31429;42.674;23.350;2023-11-19T00:57:28;94749.09;;;4.64;100.00
23164;BME280;31429;42.674;23.350;2023-11-19T00:58:29;94752.28;;;4.77;100.00
23164;BME280;31429;42.674;23.350;2023-11-19T00:59:30;94758.50;;;4.56;100.00
23164;BME280;31429;42.674;23.350;2023-11-19T01:00:32;94756.34;;;4.30;100.00
23164;BME280;31429;42.674;23.350;2023-11-19T01:01:33;94753.47;;;4.54;100.00
23164;BME280;31429;42.674;23.350;2023-11-19T01:02:33;94755.50;;;4.30;100.00
23164;BME280;31429;42.674;23.350;2023-11-19T01:03:35;94762.34;;;4.23;100.00
23164;BME280;31429;42.674;23.350;2023-11-19T01:04:36;94753.47;;;4.54;100.00
23164;BME280;31429;42.674;23.350;2023-11-19T01:05:37;94757.97;;;4.34;100.00
23164;BME280;31429;42.674;23.350;2023-11-19T01:06:37;94759.69;;;4.34;100.00
23164;BME280;31429;42.674;23.350;2023-11-19T01:07:38;94765.78;;;4.18;100.00
23164;BME280;31429;42.674;23.350;2023-11-19T01:08:39;94766.47;;;4.29;100.00
23164;BME280;31429;42.674;23.350;2023-11-19T01:09:41;94772.47;;;4.23;100.00
23164;BME280;31429;42.674;23.350;2023-11-19T01:10:42;94776.91;;;4.07;100.00
23164;BME280;31429;42.674;23.350;2023-11-19T01:11:43;94764.88;;;4.23;100.00
23164;BME280;31429;42.674;23.350;2023-11-19T01:12:43;94766.75;;;4.11;100.00
23164;BME280;31429;42.674;23.350;2023-11-19T01:13:44;94766.75;;;4.09;100.00
23164;BME280;31429;42.674;23.350;2023-11-19T01:14:45;94770.19;;;4.05;100.00
23164;BME280;31429;42.674;23.350;2023-11-19T01:15:47;94767.56;;;4.13;100.00
23164;BME280;31429;42.674;23.350;2023-11-19T01:16:48;94761.59;;;4.15;100.00
23164;BME280;31429;42.674;23.350;2023-11-19T01:17:49;94765.09;;;4.06;100.00
23164;BME280;31429;42.674;23.350;2023-11-19T01:18:50;94770.91;;;4.13;100.00
23164;BME280;31429;42.674;23.350;2023-11-19T01:19:50;94760.75;;;4.16;100.00
23164;BME280;31429;42.674;23.350;2023-11-19T01:20:51;94748.72;;;4.32;100.00
23164;BME280;31429;42.674;23.350;2023-11-19T01:21:52;94754.03;;;4.17;100.00
23164;BME280;31429;42.674;23.350;2023-11-19T01:22:52;94754.09;;;4.09;100.00
23164;BME280;31429;42.674;23.350;2023-11-19T01:23:53;94745.25;;;4.39;100.00
23164;BME280;31429;42.674;23.350;2023-11-19T01:24:54;94759.00;;;4.23;100.00
23164;BME280;31429;42.674;23.350;2023-11-19T01:25:54;94757.31;;;4.22;100.00
23164;BME280;31429;42.674;23.350;2023-11-19T01:26:55;94759.00;;;4.21;100.00
23164;BME280;31429;42.674;23.350;2023-11-19T01:27:58;94751.16;;;4.39;100.00
23164;BME280;31429;42.674;23.350;2023-11-19T01:28:58;94764.13;;;4.17;100.00
23164;BME280;31429;42.674;23.350;2023-11-19T01:30:00;94761.69;;;4.09;100.00
23164;BME280;31429;42.674;23.350;2023-11-19T01:31:06;94763.28;;;4.16;100.00
23164;BME280;31429;42.674;23.350;2023-11-19T01:32:09;94758.13;;;4.24;100.00
23164;BME280;31429;42.674;23.350;2023-11-19T01:33:10;94768.47;;;4.09;100.00
23164;BME280;31429;42.674;23.350;2023-11-19T01:34:11;94779.34;;;4.14;100.00
23164;BME280;31429;42.674;23.350;2023-11-19T01:35:14;94777.84;;;3.99;100.00
23164;BME280;31429;42.674;23.350;2023-11-19T01:36:15;94775.94;;;4.15;100.00
23164;BME280;31429;42.674;23.350;2023-11-19T01:37:16;94779.16;;;4.27;100.00
23164;BME280;31429;42.674;23.350;2023-11-19T01:38:16;94781.88;;;4.12;100.00
23164;BME280;31429;42.674;23.350;2023-11-19T01:39:17;94778.44;;;4.18;100.00
23164;BME280;31429;42.674;23.350;2023-11-19T01:40:20;94783.41;;;4.25;100.00
23164;BME280;31429;42.674;23.350;2023-11-19T01:41:21;94770.03;;;4.17;100.00
23164;BME280;31429;42.674;23.350;2023-11-19T01:42:21;94782.00;;;4.03;100.00
23164;BME280;31429;42.674;23.350;2023-11-19T01:43:32;94781.13;;;4.07;100.00
23164;BME280;31429;42.674;23.350;2023-11-19T01:44:33;94779.69;;;3.86;100.00
23164;BME280;31429;42.674;23.350;2023-11-19T01:45:35;94766.81;;;4.03;100.00
23164;BME280;31429;42.674;23.350;2023-11-19T01:46:38;94774.50;;;3.97;100.00
23164;BME280;31429;42.674;23.350;2023-11-19T01:47:40;94777.59;;;4.19;100.00
23164;BME280;31429;42.674;23.350;2023-11-19T01:48:44;94776.59;;;4.30;100.00
23164;BME280;31429;42.674;23.350;2023-11-19T01:49:45;94778.97;;;4.42;100.00
23164;BME280;31429;42.674;23.350;2023-11-19T01:50:46;94794.31;;;4.29;100.00
23164;BME280;31429;42.674;23.350;2023-11-19T01:51:47;94789.28;;;4.27;100.00
23164;BME280;31429;42.674;23.350;2023-11-19T01:52:48;94783.56;;;4.12;100.00
23164;BME280;31429;42.674;23.350;2023-11-19T01:53:49;94788.75;;;4.05;100.00
23164;BME280;31429;42.674;23.350;2023-11-19T01:54:52;94788.03;;;3.94;100.00
23164;BME280;31429;42.674;23.350;2023-11-19T01:55:53;94789.53;;;4.06;100.00
23164;BME280;31429;42.674;23.350;2023-11-19T01:56:56;94791.38;;;3.95;100.00
23164;BME280;31429;42.674;23.350;2023-11-19T01:57:59;94789.72;;;3.92;100.00
23164;BME280;31429;42.674;23.350;2023-11-19T01:59:01;94797.28;;;3.95;100.00
23164;BME280;31429;42.674;23.350;2023-11-19T02:00:03;94786.84;;;4.21;100.00
23164;BME280;31429;42.674;23.350;2023-11-19T02:01:04;94787.56;;;4.29;100.00
23164;BME280;31429;42.674;23.350;2023-11-19T02:02:07;94790.22;;;4.20;100.00
23164;BME280;31429;42.674;23.350;2023-11-19T02:03:08;94794.63;;;4.04;100.00
23164;BME280;31429;42.674;23.350;2023-11-19T02:04:09;94797.09;;;4.09;100.00
23164;BME280;31429;42.674;23.350;2023-11-19T02:05:11;94800.56;;;4.02;100.00
23164;BME280;31429;42.674;23.350;2023-11-19T02:06:13;94793.63;;;4.19;100.00
23164;BME280;31429;42.674;23.350;2023-11-19T02:07:15;94803.03;;;4.06;100.00
23164;BME280;31429;42.674;23.350;2023-11-19T02:08:17;94787.78;;;4.13;100.00
23164;BME280;31429;42.674;23.350;2023-11-19T02:09:18;94786.88;;;4.18;100.00
23164;BME280;31429;42.674;23.350;2023-11-19T02:10:19;94775.03;;;4.22;100.00
23164;BME280;31429;42.674;23.350;2023-11-19T02:11:20;94782.09;;;3.97;100.00
23164;BME280;31429;42.674;23.350;2023-11-19T02:12:21;94777.84;;;3.99;100.00
23164;BME280;31429;42.674;23.350;2023-11-19T02:13:22;94778.09;;;3.78;100.00
23164;BME280;31429;42.674;23.350;2023-11-19T02:14:24;94778.81;;;3.89;100.00
23164;BME280;31429;42.674;23.350;2023-11-19T02:15:26;94781.22;;;3.99;100.00
23164;BME280;31429;42.674;23.350;2023-11-19T02:16:27;94787.19;;;3.94;100.00
23164;BME280;31429;42.674;23.350;2023-11-19T02:17:30;94780.41;;;3.96;100.00
23164;BME280;31429;42.674;23.350;2023-11-19T02:18:40;94779.69;;;3.86;100.00
23164;BME280;31429;42.674;23.350;2023-11-19T02:19:41;94776.28;;;3.89;100.00
23164;BME280;31429;42.674;23.350;2023-11-19T02:20:42;94777.66;;;4.13;100.00
23164;BME280;31429;42.674;23.350;2023-11-19T02:21:42;94782.00;;;4.03;100.00
23164;BME280;31429;42.674;23.350;2023-11-19T02:22:43;94778.31;;;4.28;100.00
23164;BME280;31429;42.674;23.350;2023-11-19T02:23:45;94776.72;;;4.21;100.00
23164;BME280;31429;42.674;23.350;2023-11-19T02:24:47;94776.84;;;4.11;100.00
23164;BME280;31429;42.674;23.350;2023-11-19T02:25:58;94775.19;;;4.11;100.00
23164;BME280;31429;42.674;23.350;2023-11-19T02:27:02;94777.63;;;4.17;100.00
23164;BME280;31429;42.674;23.350;2023-11-19T02:28:09;94775.31;;;3.97;100.00
23164;BME280;31429;42.674;23.350;2023-11-19T02:29:12;94767.63;;;4.06;100.00
23164;BME280;31429;42.674;23.350;2023-11-19T02:30:13;94787.00;;;4.07;100.00
23164;BME280;31429;42.674;23.350;2023-11-19T02:31:14;94774.06;;;4.29;100.00
23164;BME280;31429;42.674;23.350;2023-11-19T02:32:16;94780.09;;;4.20;100.00
23164;BME280;31429;42.674;23.350;2023-11-19T02:33:16;94780.81;;;4.30;100.00
23164;BME280;31429;42.674;23.350;2023-11-19T02:34:17;94770.13;;;4.10;100.00
23164;BME280;31429;42.674;23.350;2023-11-19T02:35:18;94771.78;;;4.12;100.00
23164;BME280;31429;42.674;23.350;2023-11-19T02:36:18;94772.72;;;4.05;100.00
23164;BME280;31429;42.674;23.350;2023-11-19T02:37:19;94776.28;;;3.89;100.00
23164;BME280;31429;42.674;23.350;2023-11-19T02:38:20;94770.94;;;4.12;100.00
23164;BME280;31429;42.674;23.350;2023-11-19T02:39:22;94763.38;;;4.10;100.00
23164;BME280;31429;42.674;23.350;2023-11-19T02:40:22;94771.84;;;4.07;100.00
23164;BME280;31429;42.674;23.350;2023-11-19T02:41:24;94762.88;;;3.82;100.00
23164;BME280;31429;42.674;23.350;2023-11-19T02:42:25;94767.88;;;3.88;100.00
23164;BME280;31429;42.674;23.350;2023-11-19T02:43:27;94767.00;;;3.89;100.00
23164;BME280;31429;42.674;23.350;2023-11-19T02:44:28;94775.66;;;3.72;100.00
23164;BME280;31429;42.674;23.350;2023-11-19T02:45:30;94776.34;;;3.84;100.00
23164;BME280;31429;42.674;23.350;2023-11-19T02:46:31;94768.78;;;3.83;100.00
23164;BME280;31429;42.674;23.350;2023-11-19T02:47:32;94774.56;;;3.92;100.00
23164;BME280;31429;42.674;23.350;2023-11-19T02:48:34;94768.66;;;3.92;100.00
23164;BME280;31429;42.674;23.350;2023-11-19T02:49:37;94768.69;;;3.89;100.00
23164;BME280;31429;42.674;23.350;2023-11-19T02:50:38;94773.03;;;3.79;100.00
23164;BME280;31429;42.674;23.350;2023-11-19T02:51:38;94772.91;;;3.90;100.00
23164;BME280;31429;42.674;23.350;2023-11-19T02:52:39;94772.28;;;3.70;100.00
23164;BME280;31429;42.674;23.350;2023-11-19T02:53:41;94772.19;;;3.79;100.00
23164;BME280;31429;42.674;23.350;2023-11-19T02:54:44;94767.28;;;3.67;100.00
23164;BME280;31429;42.674;23.350;2023-11-19T02:55:45;94768.13;;;3.69;100.00
23164;BME280;31429;42.674;23.350;2023-11-19T02:56:50;94757.16;;;3.68;100.00
23164;BME280;31429;42.674;23.350;2023-11-19T02:57:56;94765.44;;;3.78;100.00
23164;BME280;31429;42.674;23.350;2023-11-19T02:59:00;94762.91;;;3.78;100.00
23164;BME280;31429;42.674;23.350;2023-11-19T03:00:09;94755.06;;;4.00;100.00
23164;BME280;31429;42.674;23.350;2023-11-19T03:01:12;94760.28;;;3.88;100.00
23164;BME280;31429;42.674;23.350;2023-11-19T03:02:23;94758.69;;;3.81;100.00
23164;BME280;31429;42.674;23.350;2023-11-19T03:03:25;94761.34;;;3.71;100.00
23164;BME280;31429;42.674;23.350;2023-11-19T03:04:38;94757.88;;;3.78;100.00
23164;BME280;31429;42.674;23.350;2023-11-19T03:05:46;94762.91;;;3.78;100.00
23164;BME280;31429;42.674;23.350;2023-11-19T03:06:47;94766.44;;;3.68;100.00
23164;BME280;31429;42.674;23.350;2023-11-19T03:07:48;94768.00;;;3.76;100.00
23164;BME280;31429;42.674;23.350;2023-11-19T03:08:48;94764.78;;;3.65;100.00
23164;BME280;31429;42.674;23.350;2023-11-19T03:09:49;94767.97;;;3.78;100.00
23164;BME280;31429;42.674;23.350;2023-11-19T03:10:50;94763.00;;;3.73;100.00
23164;BME280;31429;42.674;23.350;2023-11-19T03:11:50;94768.00;;;3.75;100.00
23164;BME280;31429;42.674;23.350;2023-11-19T03:12:51;94762.00;;;3.83;100.00
23164;BME280;31429;42.674;23.350;2023-11-19T03:13:52;94769.78;;;3.68;100.00
23164;BME280;31429;42.674;23.350;2023-11-19T03:14:54;94774.22;;;3.46;100.00
23164;BME280;31429;42.674;23.350;2023-11-19T03:15:55;94782.63;;;3.50;100.00
23164;BME280;31429;42.674;23.350;2023-11-19T03:16:56;94780.19;;;3.41;100.00
23164;BME280;31429;42.674;23.350;2023-11-19T03:17:57;94771.84;;;3.33;100.00
23164;BME280;31429;42.674;23.350;2023-11-19T03:18:58;94778.50;;;3.41;100.00
23164;BME280;31429;42.674;23.350;2023-11-19T03:20:00;94770.84;;;3.47;100.00
23164;BME280;31429;42.674;23.350;2023-11-19T03:21:01;94766.53;;;3.59;100.00
23164;BME280;31429;42.674;23.350;2023-11-19T03:22:03;94766.75;;;3.40;100.00
23164;BME280;31429;42.674;23.350;2023-11-19T03:23:04;94770.09;;;3.38;100.00
23164;BME280;31429;42.674;23.350;2023-11-19T03:24:06;94778.53;;;3.40;100.00
23164;BME280;31429;42.674;23.350;2023-11-19T03:25:08;94770.19;;;3.32;100.00
23164;BME280;31429;42.674;23.350;2023-11-19T03:26:11;94777.53;;;3.55;100.00
23164;BME280;31429;42.674;23.350;2023-11-19T03:27:12;94769.09;;;3.56;100.00
23164;BME280;31429;42.674;23.350;2023-11-19T03:28:12;94777.56;;;3.50;100.00
23164;BME280;31429;42.674;23.350;2023-11-19T03:29:13;94779.22;;;3.53;100.00
23164;BME280;31429;42.674;23.350;2023-11-19T03:30:16;94766.56;;;3.57;100.00
23164;BME280;31429;42.674;23.350;2023-11-19T03:31:18;94770.69;;;3.63;100.00
23164;BME280;31429;42.674;23.350;2023-11-19T03:32:19;94771.72;;;3.45;100.00
23164;BME280;31429;42.674;23.350;2023-11-19T03:33:20;94777.50;;;3.56;100.00
23164;BME280;31429;42.674;23.350;2023-11-19T03:34:21;94771.63;;;3.53;100.00
23164;BME280;31429;42.674;23.350;2023-11-19T03:35:22;94777.59;;;3.48;100.00
23164;BME280;31429;42.674;23.350;2023-11-19T03:36:23;94772.44;;;3.56;100.00
23164;BME280;31429;42.674;23.350;2023-11-19T03:37:24;94774.28;;;3.42;100.00
23164;BME280;31429;42.674;23.350;2023-11-19T03:38:25;94779.31;;;3.45;100.00
23164;BME280;31429;42.674;23.350;2023-11-19T03:39:26;94768.94;;;3.68;100.00
23164;BME280;31429;42.674;23.350;2023-11-19T03:40:28;94779.00;;;3.74;100.00
23164;BME280;31429;42.674;23.350;2023-11-19T03:41:29;94783.34;;;3.63;100.00
23164;BME280;31429;42.674;23.350;2023-11-19T03:42:29;94780.16;;;3.44;100.00
23164;BME280;31429;42.674;23.350;2023-11-19T03:43:31;94775.97;;;3.43;100.00
23164;BME280;31429;42.674;23.350;2023-11-19T03:44:31;94784.38;;;3.43;100.00
23164;BME280;31429;42.674;23.350;2023-11-19T03:45:33;94780.09;;;3.50;100.00
23164;BME280;31429;42.674;23.350;2023-11-19T03:46:34;94782.78;;;3.36;100.00
23164;BME280;31429;42.674;23.350;2023-11-19T03:47:36;94781.03;;;3.41;100.00
23164;BME280;31429;42.674;23.350;2023-11-19T03:48:37;94782.72;;;3.38;100.00
23164;BME280;31429;42.674;23.350;2023-11-19T03:49:39;94790.41;;;3.32;100.00
23164;BME280;31429;42.674;23.350;2023-11-19T03:50:40;94791.31;;;3.22;100.00
23164;BME280;31429;42.674;23.350;2023-11-19T03:51:41;94796.16;;;3.46;100.00
23164;BME280;31429;42.674;23.350;2023-11-19T03:52:41;94800.97;;;3.69;100.00
23164;BME280;31429;42.674;23.350;2023-11-19T03:53:42;94806.25;;;3.47;100.00
23164;BME280;31429;42.674;23.350;2023-11-19T03:54:44;94792.66;;;3.56;100.00
23164;BME280;31429;42.674;23.350;2023-11-19T03:55:46;94804.50;;;3.54;100.00
23164;BME280;31429;42.674;23.350;2023-11-19T03:56:46;94800.09;;;3.70;100.00
23164;BME280;31429;42.674;23.350;2023-11-19T03:57:47;94795.41;;;3.36;100.00
23164;BME280;31429;42.674;23.350;2023-11-19T03:58:49;94797.53;;;3.73;100.00
23164;BME280;31429;42.674;23.350;2023-11-19T03:59:49;94806.03;;;3.67;100.00
23164;BME280;31429;42.674;23.350;2023-11-19T04:00:51;94796.16;;;3.46;100.00
23164;BME280;31429;42.674;23.350;2023-11-19T04:01:52;94802.97;;;3.36;100.00
23164;BME280;31429;42.674;23.350;2023-11-19T04:02:54;94806.31;;;3.38;100.00
23164;BME280;31429;42.674;23.350;2023-11-19T04:03:54;94809.66;;;3.42;100.00
23164;BME280;31429;42.674;23.350;2023-11-19T04:04:56;94794.34;;;3.57;100.00
23164;BME280;31429;42.674;23.350;2023-11-19T04:05:57;94804.50;;;3.53;100.00
23164;BME280;31429;42.674;23.350;2023-11-19T04:06:58;94792.44;;;3.77;100.00
23164;BME280;31429;42.674;23.350;2023-11-19T04:08:01;94802.16;;;4.09;100.00
23164;BME280;31429;42.674;23.350;2023-11-19T04:09:01;94804.13;;;3.87;100.00
23164;BME280;31429;42.674;23.350;2023-11-19T04:10:02;94800.00;;;3.79;100.00
23164;BME280;31429;42.674;23.350;2023-11-19T04:11:04;94802.78;;;4.28;100.00
23164;BME280;31429;42.674;23.350;2023-11-19T04:12:05;94809.34;;;3.74;100.00
23164;BME280;31429;42.674;23.350;2023-11-19T04:13:07;94804.06;;;3.93;100.00
23164;BME280;31429;42.674;23.350;2023-11-19T04:14:07;94818.47;;;3.84;100.00
23164;BME280;31429;42.674;23.350;2023-11-19T04:15:08;94820.34;;;3.67;100.00
23164;BME280;31429;42.674;23.350;2023-11-19T04:16:10;94812.44;;;3.97;100.00
23164;BME280;31429;42.674;23.350;2023-11-19T04:17:11;94817.03;;;3.62;100.00
23164;BME280;31429;42.674;23.350;2023-11-19T04:18:12;94822.88;;;3.67;100.00
23164;BME280;31429;42.674;23.350;2023-11-19T04:19:13;94822.16;;;3.56;100.00
23164;BME280;31429;42.674;23.350;2023-11-19T04:20:13;94816.22;;;3.58;100.00
23164;BME280;31429;42.674;23.350;2023-11-19T04:21:14;94812.06;;;3.54;100.00
23164;BME280;31429;42.674;23.350;2023-11-19T04:22:15;94811.97;;;3.63;100.00
23164;BME280;31429;42.674;23.350;2023-11-19T04:23:15;94811.91;;;3.71;100.00
23164;BME280;31429;42.674;23.350;2023-11-19T04:24:16;94809.41;;;3.66;100.00
23164;BME280;31429;42.674;23.350;2023-11-19T04:25:17;94817.13;;;3.54;100.00
23164;BME280;31429;42.674;23.350;2023-11-19T04:26:19;94809.63;;;3.43;100.00
23164;BME280;31429;42.674;23.350;2023-11-19T04:27:20;94807.09;;;3.45;100.00
23164;BME280;31429;42.674;23.350;2023-11-19T04:28:21;94811.13;;;3.66;100.00
23164;BME280;31429;42.674;23.350;2023-11-19T04:29:21;94791.72;;;3.65;100.00
23164;BME280;31429;42.674;23.350;2023-11-19T04:30:22;94812.56;;;3.85;100.00
23164;BME280;31429;42.674;23.350;2023-11-19T04:31:28;94799.69;;;4.03;100.00
23164;BME280;31429;42.674;23.350;2023-11-19T04:32:29;94814.47;;;3.65;100.00
23164;BME280;31429;42.674;23.350;2023-11-19T04:33:30;94819.47;;;3.71;100.00
23164;BME280;31429;42.674;23.350;2023-11-19T04:34:30;94810.94;;;3.82;100.00
23164;BME280;31429;42.674;23.350;2023-11-19T04:35:31;94821.78;;;3.90;100.00
23164;BME280;31429;42.674;23.350;2023-11-19T04:36:32;94831.09;;;3.87;100.00
23164;BME280;31429;42.674;23.350;2023-11-19T04:37:33;94828.25;;;4.14;100.00
23164;BME280;31429;42.674;23.350;2023-11-19T04:38:35;94830.91;;;4.03;100.00
23164;BME280;31429;42.674;23.350;2023-11-19T04:39:35;94840.91;;;4.14;100.00
23164;BME280;31429;42.674;23.350;2023-11-19T04:40:37;94836.25;;;3.78;100.00
23164;BME280;31429;42.674;23.350;2023-11-19T04:41:45;94849.75;;;3.77;100.00
23164;BME280;31429;42.674;23.350;2023-11-19T04:42:47;94843.56;;;4.00;100.00
23164;BME280;31429;42.674;23.350;2023-11-19T04:43:47;94843.13;;;3.64;100.00
23164;BME280;31429;42.674;23.350;2023-11-19T04:44:48;94849.75;;;3.75;100.00
23164;BME280;31429;42.674;23.350;2023-11-19T04:45:49;94844.63;;;3.81;100.00
23164;BME280;31429;42.674;23.350;2023-11-19T04:46:51;94843.97;;;3.66;100.00
23164;BME280;31429;42.674;23.350;2023-11-19T04:47:51;94844.75;;;3.69;100.00
23164;BME280;31429;42.674;23.350;2023-11-19T04:48:52;94848.81;;;3.84;100.00
23164;BME280;31429;42.674;23.350;2023-11-19T04:49:53;94845.50;;;3.79;100.00
23164;BME280;31429;42.674;23.350;2023-11-19T04:50:53;94847.25;;;3.72;100.00
23164;BME280;31429;42.674;23.350;2023-11-19T04:51:54;94845.69;;;3.62;100.00
23164;BME280;31429;42.674;23.350;2023-11-19T04:52:55;94843.88;;;3.73;100.00
23164;BME280;31429;42.674;23.350;2023-11-19T04:53:56;94850.78;;;3.59;100.00
23164;BME280;31429;42.674;23.350;2023-11-19T04:54:56;94857.41;;;3.71;100.00
23164;BME280;31429;42.674;23.350;2023-11-19T04:55:57;94846.28;;;3.84;100.00
23164;BME280;31429;42.674;23.350;2023-11-19T04:56:58;94840.66;;;3.59;100.00
23164;BME280;31429;42.674;23.350;2023-11-19T04:57:59;94848.34;;;3.48;100.00
23164;BME280;31429;42.674;23.350;2023-11-19T04:58:59;94850.16;;;3.34;100.00
23164;BME280;31429;42.674;23.350;2023-11-19T05:00:00;94845.84;;;3.45;100.00
23164;BME280;31429;42.674;23.350;2023-11-19T05:01:01;94844.16;;;3.44;100.00
23164;BME280;31429;42.674;23.350;2023-11-19T05:02:03;94848.38;;;3.44;100.00
23164;BME280;31429;42.674;23.350;2023-11-19T05:03:04;94845.78;;;3.53;100.00
23164;BME280;31429;42.674;23.350;2023-11-19T05:04:05;94840.69;;;3.56;100.00
23164;BME280;31429;42.674;23.350;2023-11-19T05:05:06;94852.47;;;3.57;100.00
23164;BME280;31429;42.674;23.350;2023-11-19T05:06:08;94854.28;;;3.46;100.00
23164;BME280;31429;42.674;23.350;2023-11-19T05:07:08;94856.59;;;3.67;100.00
23164;BME280;31429;42.674;23.350;2023-11-19T05:08:09;94863.41;;;3.59;100.00
23164;BME280;31429;42.674;23.350;2023-11-19T05:09:10;94871.03;;;3.53;100.00
23164;BME280;31429;42.674;23.350;2023-11-19T05:10:13;94872.66;;;3.62;100.00
23164;BME280;31429;42.674;23.350;2023-11-19T05:11:14;94878.44;;;3.74;100.00
23164;BME280;31429;42.674;23.350;2023-11-19T05:12:18;94883.47;;;3.77;100.00
23164;BME280;31429;42.674;23.350;2023-11-19T05:13:19;94881.97;;;3.57;100.00
23164;BME280;31429;42.674;23.350;2023-11-19T05:14:20;94880.34;;;3.48;100.00
23164;BME280;31429;42.674;23.350;2023-11-19T05:15:22;94881.19;;;3.48;100.00
23164;BME280;31429;42.674;23.350;2023-11-19T05:16:22;94875.88;;;3.77;100.00
23164;BME280;31429;42.674;23.350;2023-11-19T05:17:24;94873.25;;;3.83;100.00
23164;BME280;31429;42.674;23.350;2023-11-19T05:18:25;94869.16;;;3.73;100.00
23164;BME280;31429;42.674;23.350;2023-11-19T05:19:26;94880.16;;;3.71;100.00
23164;BME280;31429;42.674;23.350;2023-11-19T05:20:27;94876.88;;;3.58;100.00
23164;BME280;31429;42.674;23.350;2023-11-19T05:21:27;94875.06;;;3.74;100.00